createdAt,value
2018-04-17T00:00:24.845Z,11.52
2018-04-17T00:01:24.834Z,11.49
2018-04-17T00:02:24.830Z,11.57
2018-04-17T00:03:24.832Z,11.57
2018-04-17T00:04:24.558Z,11.6
2018-04-17T00:05:24.552Z,11.6
2018-04-17T00:06:24.797Z,11.65
2018-04-17T00:07:24.789Z,11.67
2018-04-17T00:08:24.785Z,11.7
2018-04-17T00:09:24.528Z,11.69
2018-04-17T00:10:24.522Z,11.69
2018-04-17T00:11:24.759Z,11.82
2018-04-17T00:12:24.751Z,11.73
2018-04-17T00:13:24.759Z,11.82
2018-04-17T00:14:24.482Z,11.9
2018-04-17T00:15:24.741Z,11.83
2018-04-17T00:16:24.721Z,11.96
2018-04-17T00:17:24.497Z,11.9
2018-04-17T00:18:24.203Z,12.04
2018-04-17T00:19:24.457Z,11.98
2018-04-17T00:20:24.451Z,12.13
2018-04-17T00:21:24.692Z,12.1
2018-04-17T00:22:24.680Z,12.04
2018-04-17T00:23:24.676Z,11.99
2018-04-17T00:24:24.665Z,12.07
2018-04-17T00:25:24.659Z,12.04
2018-04-17T00:26:24.649Z,12.12
2018-04-17T00:27:24.389Z,12.14
2018-04-17T00:28:24.634Z,12.21
2018-04-17T00:29:24.627Z,12.12
2018-04-17T00:30:24.630Z,12.19
2018-04-17T00:31:24.373Z,12.29
2018-04-17T00:32:24.391Z,12.28
2018-04-17T00:33:24.347Z,12.19
2018-04-17T00:34:24.598Z,12.32
2018-04-17T00:35:24.331Z,12.35
2018-04-17T00:36:24.329Z,12.31
2018-04-17T00:37:24.573Z,12.29
2018-04-17T00:38:24.565Z,12.45
2018-04-17T00:39:24.303Z,12.34
2018-04-17T00:40:24.551Z,12.46
2018-04-17T00:41:24.546Z,12.39
2018-04-17T00:42:24.539Z,12.38
2018-04-17T00:43:24.528Z,12.39
2018-04-17T00:44:24.531Z,12.49
2018-04-17T00:45:24.515Z,12.45
2018-04-17T00:46:24.255Z,12.37
2018-04-17T00:47:24.247Z,12.47
2018-04-17T00:48:24.493Z,12.49
2018-04-17T00:49:24.237Z,12.46
2018-04-17T00:50:24.480Z,12.42
2018-04-17T00:51:24.476Z,12.47
2018-04-17T00:52:24.212Z,12.41
2018-04-17T00:53:24.205Z,12.28
2018-04-17T00:54:24.217Z,12.31
2018-04-17T00:55:24.447Z,12.21
2018-04-17T00:56:24.439Z,12.14
2018-04-17T00:57:24.441Z,12.2
2018-04-17T00:58:24.441Z,12.2
2018-04-17T00:59:24.421Z,12.05
2018-04-17T01:00:24.423Z,12.02
2018-04-17T01:01:24.416Z,12.02
2018-04-17T01:02:24.144Z,11.96
2018-04-17T01:03:24.390Z,11.98
2018-04-17T01:04:24.385Z,11.9
2018-04-17T01:05:24.378Z,11.98
2018-04-17T01:06:24.370Z,11.9
2018-04-17T01:07:24.361Z,11.88
2018-04-17T01:08:24.101Z,11.85
2018-04-17T01:09:24.356Z,11.82
2018-04-17T01:10:24.341Z,11.86
2018-04-17T01:11:24.337Z,11.8
2018-04-17T01:12:24.326Z,11.67
2018-04-17T01:13:24.320Z,11.75
2018-04-17T01:14:24.315Z,11.52
2018-04-17T01:15:24.559Z,11.55
2018-04-17T01:16:24.300Z,11.54
2018-04-17T01:17:24.294Z,11.43
2018-04-17T01:18:24.031Z,11.51
2018-04-17T01:19:24.277Z,11.39
2018-04-17T01:20:24.268Z,11.27
2018-04-17T01:21:24.262Z,11.32
2018-04-17T01:22:24.254Z,11.28
2018-04-17T01:23:24.248Z,11.33
2018-04-17T01:24:24.238Z,11.24
2018-04-17T01:25:24.022Z,11.21
2018-04-17T01:26:24.233Z,11.11
2018-04-17T01:27:24.217Z,11.11
2018-04-17T01:28:24.210Z,11.07
2018-04-17T01:29:23.951Z,10.99
2018-04-17T01:30:24.200Z,10.88
2018-04-17T01:31:23.932Z,10.89
2018-04-17T01:32:23.933Z,10.84
2018-04-17T01:33:24.170Z,10.86
2018-04-17T01:34:24.161Z,10.81
2018-04-17T01:35:24.157Z,10.76
2018-04-17T01:36:24.177Z,10.71
2018-04-17T01:37:24.144Z,10.76
2018-04-17T01:38:24.131Z,10.66
2018-04-17T01:39:24.122Z,10.64
2018-04-17T01:40:24.116Z,10.6
2018-04-17T01:41:24.107Z,10.52
2018-04-17T01:42:23.594Z,10.55
2018-04-17T01:43:23.838Z,10.59
2018-04-17T01:44:23.832Z,10.51
2018-04-17T01:45:23.823Z,10.53
2018-04-17T01:46:23.563Z,10.44
2018-04-17T01:47:24.059Z,10.45
2018-04-17T01:48:24.059Z,10.45
2018-04-17T01:49:23.793Z,10.48
2018-04-17T01:50:24.038Z,10.4
2018-04-17T01:51:23.776Z,10.36
2018-04-17T01:52:24.022Z,10.42
2018-04-17T01:53:24.021Z,10.29
2018-04-17T01:54:23.758Z,10.27
2018-04-17T01:55:23.746Z,10.4
2018-04-17T01:56:23.736Z,10.32
2018-04-17T01:57:23.983Z,10.23
2018-04-17T01:58:23.720Z,10.18
2018-04-17T01:59:23.719Z,10.22
2018-04-17T02:00:23.959Z,10.14
2018-04-17T02:01:23.956Z,10.22
2018-04-17T02:02:23.958Z,10.14
2018-04-17T02:03:23.935Z,10.04
2018-04-17T02:04:23.925Z,10.09
2018-04-17T02:05:23.972Z,10.11
2018-04-17T02:06:23.913Z,10.11
2018-04-17T02:07:23.914Z,10.02
2018-04-17T02:08:23.914Z,10.05
2018-04-17T02:09:23.888Z,10.02
2018-04-17T02:10:23.877Z,9.99
2018-04-17T02:11:23.875Z,9.99
2018-04-17T02:12:23.868Z,9.9
2018-04-17T02:13:23.851Z,9.94
2018-04-17T02:14:23.643Z,9.89
2018-04-17T02:15:23.587Z,9.83
2018-04-17T02:16:23.833Z,9.86
2018-04-17T02:17:23.565Z,9.79
2018-04-17T02:18:23.560Z,9.84
2018-04-17T02:19:23.802Z,9.78
2018-04-17T02:20:23.793Z,9.76
2018-04-17T02:21:23.795Z,9.75
2018-04-17T02:22:23.524Z,9.68
2018-04-17T02:23:23.520Z,9.71
2018-04-17T02:24:23.252Z,9.68
2018-04-17T02:25:23.750Z,9.69
2018-04-17T02:26:23.506Z,9.66
2018-04-17T02:27:23.740Z,9.65
2018-04-17T02:28:23.473Z,9.71
2018-04-17T02:29:23.730Z,9.64
2018-04-17T02:30:23.709Z,9.6
2018-04-17T02:31:23.454Z,9.65
2018-04-17T02:32:23.692Z,9.61
2018-04-17T02:33:23.685Z,9.58
2018-04-17T02:34:23.682Z,9.65
2018-04-17T02:35:23.666Z,9.54
2018-04-17T02:36:23.657Z,9.65
2018-04-17T02:37:23.656Z,9.65
2018-04-17T02:38:23.660Z,9.61
2018-04-17T02:39:23.383Z,9.56
2018-04-17T02:40:23.373Z,9.5
2018-04-17T02:41:23.614Z,9.47
2018-04-17T02:42:23.610Z,9.5
2018-04-17T02:43:23.601Z,9.47
2018-04-17T02:44:23.590Z,9.48
2018-04-17T02:45:23.583Z,9.5
2018-04-17T02:46:23.324Z,9.4
2018-04-17T02:47:23.314Z,9.42
2018-04-17T02:48:23.556Z,9.48
2018-04-17T02:49:23.546Z,9.42
2018-04-17T02:50:23.300Z,9.42
2018-04-17T02:51:23.553Z,9.39
2018-04-17T02:52:23.526Z,9.42
2018-04-17T02:53:23.270Z,9.39
2018-04-17T02:54:23.503Z,9.38
2018-04-17T02:55:23.492Z,9.35
2018-04-17T02:56:23.485Z,9.38
2018-04-17T02:57:23.485Z,9.33
2018-04-17T02:58:23.211Z,9.35
2018-04-17T02:59:22.949Z,9.32
2018-04-17T03:00:23.193Z,9.33
2018-04-17T03:01:23.437Z,9.33
2018-04-17T03:02:23.187Z,9.21
2018-04-17T03:03:22.912Z,9.23
2018-04-17T03:04:23.423Z,9.23
2018-04-17T03:05:22.899Z,9.2
2018-04-17T03:06:23.410Z,9.2
2018-04-17T03:07:23.130Z,9.15
2018-04-17T03:08:23.374Z,9.23
2018-04-17T03:09:23.365Z,9.2
2018-04-17T03:10:23.359Z,9.15
2018-04-17T03:11:23.354Z,9.23
2018-04-17T03:12:23.337Z,9.21
2018-04-17T03:13:23.328Z,9.13
2018-04-17T03:14:23.321Z,9.13
2018-04-17T03:15:23.311Z,9.11
2018-04-17T03:16:23.301Z,9.02
2018-04-17T03:17:23.042Z,9.05
2018-04-17T03:18:23.035Z,9.02
2018-04-17T03:19:23.293Z,8.96
2018-04-17T03:20:23.019Z,8.98
2018-04-17T03:21:23.257Z,9.01
2018-04-17T03:22:22.996Z,8.98
2018-04-17T03:23:23.239Z,8.96
2018-04-17T03:24:23.230Z,8.92
2018-04-17T03:25:23.220Z,8.89
2018-04-17T03:26:23.215Z,8.86
2018-04-17T03:27:23.215Z,8.95
2018-04-17T03:28:23.201Z,8.91
2018-04-17T03:29:23.189Z,8.89
2018-04-17T03:30:22.929Z,8.89
2018-04-17T03:31:23.173Z,8.83
2018-04-17T03:32:23.163Z,8.8
2018-04-17T03:33:23.151Z,8.79
2018-04-17T03:34:23.141Z,8.81
2018-04-17T03:35:23.142Z,8.77
2018-04-17T03:36:23.123Z,8.8
2018-04-17T03:37:23.116Z,8.83
2018-04-17T03:38:23.120Z,8.73
2018-04-17T03:39:22.840Z,8.68
2018-04-17T03:40:23.086Z,8.74
2018-04-17T03:41:23.078Z,8.74
2018-04-17T03:42:23.085Z,8.77
2018-04-17T03:43:23.064Z,8.73
2018-04-17T03:44:23.048Z,8.76
2018-04-17T03:45:23.041Z,8.76
2018-04-17T03:46:22.779Z,8.74
2018-04-17T03:47:23.019Z,8.66
2018-04-17T03:48:23.014Z,8.71
2018-04-17T03:49:22.752Z,8.71
2018-04-17T03:50:22.997Z,8.84
2018-04-17T03:51:22.987Z,8.74
2018-04-17T03:52:22.988Z,8.7
2018-04-17T03:53:22.712Z,8.8
2018-04-17T03:54:22.702Z,8.71
2018-04-17T03:55:22.692Z,8.83
2018-04-17T03:56:22.687Z,8.87
2018-04-17T03:57:22.931Z,8.79
2018-04-17T03:58:22.666Z,8.68
2018-04-17T03:59:22.908Z,8.8
2018-04-17T04:00:22.899Z,8.7
2018-04-17T04:01:22.895Z,8.66
2018-04-17T04:02:22.881Z,8.66
2018-04-17T04:03:22.887Z,8.71
2018-04-17T04:04:22.870Z,8.79
2018-04-17T04:05:22.853Z,8.71
2018-04-17T04:06:22.591Z,8.77
2018-04-17T04:07:22.833Z,8.68
2018-04-17T04:08:22.826Z,8.7
2018-04-17T04:09:22.820Z,8.65
2018-04-17T04:10:22.819Z,8.66
2018-04-17T04:11:22.799Z,8.76
2018-04-17T04:12:22.791Z,8.76
2018-04-17T04:13:22.546Z,8.63
2018-04-17T04:14:22.774Z,8.77
2018-04-17T04:15:22.760Z,8.71
2018-04-17T04:16:22.751Z,8.8
2018-04-17T04:17:22.490Z,8.77
2018-04-17T04:18:22.480Z,8.74
2018-04-17T04:19:22.474Z,8.76
2018-04-17T04:20:22.717Z,8.71
2018-04-17T04:21:22.451Z,8.77
2018-04-17T04:22:22.702Z,8.76
2018-04-17T04:23:22.689Z,8.81
2018-04-17T04:24:22.422Z,8.8
2018-04-17T04:25:22.669Z,8.73
2018-04-17T04:26:22.405Z,8.79
2018-04-17T04:27:22.649Z,8.66
2018-04-17T04:28:22.640Z,8.83
2018-04-17T04:29:22.376Z,8.74
2018-04-17T04:30:22.632Z,8.83
2018-04-17T04:31:22.362Z,8.81
2018-04-17T04:32:22.628Z,8.81
2018-04-17T04:33:22.599Z,8.87
2018-04-17T04:34:22.585Z,8.92
2018-04-17T04:35:22.069Z,8.87
2018-04-17T04:36:22.579Z,8.96
2018-04-17T04:37:22.556Z,9.01
2018-04-17T04:38:22.553Z,9.05
2018-04-17T04:39:22.548Z,9.17
2018-04-17T04:40:22.527Z,9.14
2018-04-17T04:41:22.519Z,9.28
2018-04-17T04:42:22.512Z,9.36
2018-04-17T04:43:22.507Z,9.47
2018-04-17T04:44:22.502Z,9.47
2018-04-17T04:45:22.484Z,9.53
2018-04-17T04:46:22.476Z,9.65
2018-04-17T04:47:22.474Z,9.72
2018-04-17T04:48:22.463Z,9.81
2018-04-17T04:49:22.449Z,9.89
2018-04-17T04:50:22.443Z,9.9
2018-04-17T04:51:22.442Z,10.07
2018-04-17T04:52:22.172Z,10.27
2018-04-17T04:53:22.419Z,10.36
2018-04-17T04:54:22.173Z,10.41
2018-04-17T04:55:22.404Z,10.53
2018-04-17T04:56:22.396Z,10.66
2018-04-17T04:57:22.396Z,10.76
2018-04-17T04:58:22.394Z,10.96
2018-04-17T04:59:22.372Z,11.07
2018-04-17T05:00:22.375Z,11.28
2018-04-17T05:01:22.409Z,11.24
2018-04-17T05:02:22.353Z,11.47
2018-04-17T05:03:22.347Z,11.6
2018-04-17T05:04:22.083Z,11.78
2018-04-17T05:05:22.324Z,11.83
2018-04-17T05:06:22.320Z,12.12
2018-04-17T05:07:22.311Z,12.12
2018-04-17T05:08:22.314Z,12.31
2018-04-17T05:09:22.312Z,12.45
2018-04-17T05:10:22.298Z,12.56
2018-04-17T05:11:22.297Z,12.7
2018-04-17T05:12:22.288Z,12.86
2018-04-17T05:13:22.300Z,12.97
2018-04-17T05:14:22.267Z,13.2
2018-04-17T05:15:22.289Z,13.23
2018-04-17T05:16:22.257Z,13.52
2018-04-17T05:17:22.251Z,13.66
2018-04-17T05:18:22.249Z,13.89
2018-04-17T05:19:22.241Z,14.06
2018-04-17T05:20:22.240Z,14.21
2018-04-17T05:21:22.246Z,14.4
2018-04-17T05:22:22.226Z,14.47
2018-04-17T05:23:22.223Z,14.77
2018-04-17T05:24:21.966Z,14.95
2018-04-17T05:25:22.213Z,15.19
2018-04-17T05:26:22.230Z,15.31
2018-04-17T05:27:21.951Z,15.39
2018-04-17T05:28:22.200Z,15.62
2018-04-17T05:29:22.198Z,15.84
2018-04-17T05:30:22.197Z,16.07
2018-04-17T05:31:22.189Z,16.3
2018-04-17T05:32:21.936Z,16.52
2018-04-17T05:33:22.393Z,16.75
2018-04-17T05:34:22.299Z,16.97
2018-04-17T05:35:21.922Z,17.19
2018-04-17T05:36:22.259Z,17.23
2018-04-17T05:37:22.174Z,17.37
2018-04-17T05:38:22.170Z,17.62
2018-04-17T05:39:22.172Z,17.82
2018-04-17T05:40:22.177Z,18.02
2018-04-17T05:41:22.169Z,18.11
2018-04-17T05:42:22.165Z,18.29
2018-04-17T05:43:22.179Z,18.32
2018-04-17T05:44:21.902Z,18.42
2018-04-17T05:45:22.159Z,18.58
2018-04-17T05:46:22.150Z,18.66
2018-04-17T05:47:22.180Z,18.84
2018-04-17T05:48:22.164Z,18.94
2018-04-17T05:49:22.146Z,19.14
2018-04-17T05:50:22.213Z,19.29
2018-04-17T05:51:22.183Z,19.54
2018-04-17T05:52:22.144Z,19.77
2018-04-17T05:53:22.149Z,19.83
2018-04-17T05:54:22.149Z,19.92
2018-04-17T05:55:22.142Z,20.05
2018-04-17T05:56:22.140Z,20.29
2018-04-17T05:57:22.150Z,20.41
2018-04-17T05:58:22.153Z,20.66
2018-04-17T05:59:21.886Z,20.84
2018-04-17T06:00:22.142Z,20.92
2018-04-17T06:01:22.142Z,21.04
2018-04-17T06:02:22.146Z,21.16
2018-04-17T06:03:22.169Z,21.21
2018-04-17T06:04:21.907Z,21.46
2018-04-17T06:05:22.163Z,21.59
2018-04-17T06:06:22.158Z,21.61
2018-04-17T06:07:22.150Z,21.82
2018-04-17T06:08:22.149Z,21.96
2018-04-17T06:09:21.900Z,21.94
2018-04-17T06:10:22.153Z,22.1
2018-04-17T06:11:21.903Z,22.28
2018-04-17T06:12:21.931Z,22.31
2018-04-17T06:13:22.164Z,22.4
2018-04-17T06:14:22.165Z,22.47
2018-04-17T06:15:22.162Z,22.55
2018-04-17T06:16:22.168Z,22.64
2018-04-17T06:17:21.670Z,22.86
2018-04-17T06:18:22.195Z,22.94
2018-04-17T06:19:22.177Z,23.01
2018-04-17T06:20:22.191Z,23.15
2018-04-17T06:21:22.184Z,23.31
2018-04-17T06:22:22.190Z,23.35
2018-04-17T06:23:22.398Z,23.48
2018-04-17T06:24:22.194Z,23.6
2018-04-17T06:25:22.197Z,23.78
2018-04-17T06:26:21.959Z,23.78
2018-04-17T06:27:21.957Z,23.93
2018-04-17T06:28:22.211Z,23.9
2018-04-17T06:29:22.227Z,24.05
2018-04-17T06:30:21.968Z,24.15
2018-04-17T06:31:22.254Z,24.27
2018-04-17T06:32:22.249Z,24.28
2018-04-17T06:33:22.253Z,24.35
2018-04-17T06:34:21.991Z,24.46
2018-04-17T06:35:22.244Z,24.57
2018-04-17T06:36:22.300Z,24.61
2018-04-17T06:37:22.265Z,24.71
2018-04-17T06:38:22.212Z,24.84
2018-04-17T06:39:22.266Z,24.9
2018-04-17T06:40:22.275Z,24.98
2018-04-17T06:41:21.802Z,25.03
2018-04-17T06:42:22.284Z,25.08
2018-04-17T06:43:22.286Z,25.13
2018-04-17T06:44:22.043Z,25.23
2018-04-17T06:45:22.305Z,25.38
2018-04-17T06:46:22.058Z,25.38
2018-04-17T06:47:22.499Z,25.54
2018-04-17T06:48:22.328Z,25.65
2018-04-17T06:49:22.735Z,25.82
2018-04-17T06:50:22.337Z,25.92
2018-04-17T06:51:22.344Z,26.01
2018-04-17T06:52:22.125Z,26.1
2018-04-17T06:53:22.357Z,26.25
2018-04-17T06:54:22.108Z,26.35
2018-04-17T06:55:22.373Z,26.4
2018-04-17T06:56:22.123Z,26.62
2018-04-17T06:57:22.391Z,26.7
2018-04-17T06:58:22.390Z,26.84
2018-04-17T06:59:22.409Z,27.02
2018-04-17T07:00:22.199Z,27.17
2018-04-17T07:01:22.435Z,27.31
2018-04-17T07:02:22.452Z,27.44
2018-04-17T07:03:22.553Z,27.66
2018-04-17T07:04:22.446Z,27.7
2018-04-17T07:05:22.574Z,27.94
2018-04-17T07:06:22.461Z,28.07
2018-04-17T07:07:22.250Z,28.06
2018-04-17T07:08:22.240Z,28.11
2018-04-17T07:09:22.235Z,28.27
2018-04-17T07:10:22.502Z,28.22
2018-04-17T07:11:22.514Z,28.21
2018-04-17T07:12:22.514Z,28.37
2018-04-17T07:13:22.533Z,28.4
2018-04-17T07:14:22.578Z,28.34
2018-04-17T07:15:22.560Z,28.39
2018-04-17T07:16:22.567Z,28.46
2018-04-17T07:17:22.354Z,28.39
2018-04-17T07:18:22.570Z,28.39
2018-04-17T07:19:22.581Z,28.25
2018-04-17T07:20:22.584Z,28.18
2018-04-17T07:21:22.598Z,28.22
2018-04-17T07:22:22.609Z,28.11
2018-04-17T07:23:22.611Z,28.19
2018-04-17T07:24:22.621Z,28.15
2018-04-17T07:25:22.639Z,28.24
2018-04-17T07:26:22.640Z,28.11
2018-04-17T07:27:22.659Z,28.19
2018-04-17T07:28:22.660Z,28.27
2018-04-17T07:29:22.708Z,28.12
2018-04-17T07:30:22.682Z,28.11
2018-04-17T07:31:22.728Z,27.97
2018-04-17T07:32:22.696Z,27.93
2018-04-17T07:33:22.739Z,27.85
2018-04-17T07:34:22.734Z,27.9
2018-04-17T07:35:22.741Z,27.88
2018-04-17T07:36:22.486Z,27.78
2018-04-17T07:37:22.501Z,27.82
2018-04-17T07:38:22.750Z,27.84
2018-04-17T07:39:22.764Z,27.77
2018-04-17T07:40:22.973Z,27.87
2018-04-17T07:41:22.825Z,28.03
2018-04-17T07:42:22.820Z,28.04
2018-04-17T07:43:22.825Z,28.21
2018-04-17T07:44:22.841Z,28.25
2018-04-17T07:45:22.848Z,28.34
2018-04-17T07:46:22.829Z,28.36
2018-04-17T07:47:22.968Z,28.48
2018-04-17T07:48:22.870Z,28.43
2018-04-17T07:49:22.605Z,28.4
2018-04-17T07:50:22.882Z,28.33
2018-04-17T07:51:22.640Z,28.31
2018-04-17T07:52:22.902Z,28.25
2018-04-17T07:53:22.908Z,28.24
2018-04-17T07:54:22.920Z,28.25
2018-04-17T07:55:22.969Z,28.34
2018-04-17T07:56:22.934Z,28.39
2018-04-17T07:57:22.950Z,28.29
2018-04-17T07:58:22.702Z,28.04
2018-04-17T07:59:22.967Z,27.87
2018-04-17T08:00:22.726Z,27.81
2018-04-17T08:01:23.018Z,27.7
2018-04-17T08:02:23.557Z,27.54
2018-04-17T08:03:23.016Z,27.47
2018-04-17T08:04:23.025Z,27.43
2018-04-17T08:05:22.776Z,27.6
2018-04-17T08:06:22.777Z,27.65
2018-04-17T08:07:22.544Z,27.67
2018-04-17T08:08:22.828Z,27.75
2018-04-17T08:09:22.819Z,27.74
2018-04-17T08:10:22.825Z,27.7
2018-04-17T08:11:23.082Z,27.7
2018-04-17T08:12:22.846Z,27.69
2018-04-17T08:13:23.105Z,27.69
2018-04-17T08:14:23.125Z,27.6
2018-04-17T08:15:23.127Z,27.65
2018-04-17T08:16:23.129Z,27.59
2018-04-17T08:17:23.179Z,27.59
2018-04-17T08:18:23.151Z,27.51
2018-04-17T08:19:23.176Z,27.57
2018-04-17T08:20:23.195Z,27.5
2018-04-17T08:21:23.174Z,27.46
2018-04-17T08:22:23.184Z,27.31
2018-04-17T08:23:23.395Z,27.07
2018-04-17T08:24:23.236Z,26.87
2018-04-17T08:25:23.215Z,26.8
2018-04-17T08:26:23.224Z,26.54
2018-04-17T08:27:23.245Z,26.44
2018-04-17T08:28:22.759Z,26.3
2018-04-17T08:29:23.341Z,26.07
2018-04-17T08:30:23.268Z,25.91
2018-04-17T08:31:23.287Z,25.73
2018-04-17T08:32:23.028Z,25.45
2018-04-17T08:33:23.299Z,25.27
2018-04-17T08:34:23.044Z,25.09
2018-04-17T08:35:23.306Z,24.91
2018-04-17T08:36:23.355Z,24.71
2018-04-17T08:37:23.369Z,24.64
2018-04-17T08:38:23.347Z,24.43
2018-04-17T08:39:23.076Z,24.25
2018-04-17T08:40:23.341Z,24.12
2018-04-17T08:41:23.341Z,24.08
2018-04-17T08:42:23.358Z,23.84
2018-04-17T08:43:23.359Z,23.83
2018-04-17T08:44:23.393Z,23.65
2018-04-17T08:47:22.879Z,23.32
2018-04-17T08:48:23.401Z,23.16
2018-04-17T08:49:23.396Z,22.9
2018-04-17T08:50:23.163Z,22.91
2018-04-17T08:51:24.615Z,22.67
2018-04-17T08:52:24.223Z,22.46
2018-04-17T08:53:23.139Z,22.33
2018-04-17T08:54:23.169Z,22.21
2018-04-17T08:55:23.397Z,22.12
2018-04-17T08:56:22.896Z,22.09
2018-04-17T08:57:23.434Z,22.03
2018-04-17T08:58:23.155Z,21.92
2018-04-17T08:59:23.152Z,21.86
2018-04-17T09:00:23.439Z,21.75
2018-04-17T09:01:23.414Z,21.71
2018-04-17T09:02:23.433Z,21.69
2018-04-17T09:03:23.430Z,21.64
2018-04-17T09:04:23.649Z,21.32
2018-04-17T09:05:23.557Z,21.22
2018-04-17T09:06:23.426Z,21.13
2018-04-17T09:07:23.434Z,21.01
2018-04-17T09:08:23.435Z,20.97
2018-04-17T09:09:23.170Z,20.79
2018-04-17T09:10:23.420Z,20.79
2018-04-17T09:11:23.175Z,20.64
2018-04-17T09:12:23.168Z,20.64
2018-04-17T09:13:23.418Z,20.61
2018-04-17T09:14:23.423Z,20.59
2018-04-17T09:15:23.422Z,20.47
2018-04-17T09:16:23.423Z,20.33
2018-04-17T09:17:23.428Z,20.33
2018-04-17T09:18:23.435Z,20.29
2018-04-17T09:19:23.419Z,20.29
2018-04-17T09:20:23.432Z,20.16
2018-04-17T09:21:23.174Z,20.18
2018-04-17T09:22:23.439Z,20.14
2018-04-17T09:23:23.458Z,20.03
2018-04-17T09:24:23.416Z,20.1
2018-04-17T09:25:23.441Z,20.03
2018-04-17T09:26:23.427Z,19.94
2018-04-17T09:27:23.197Z,19.91
2018-04-17T09:28:23.479Z,19.73
2018-04-17T09:29:23.606Z,19.73
2018-04-17T09:30:23.442Z,19.74
2018-04-17T09:31:23.469Z,19.78
2018-04-17T09:32:23.650Z,19.78
2018-04-17T09:34:23.464Z,19.77
2018-04-17T09:35:23.245Z,19.74
2018-04-17T09:36:23.242Z,19.76
2018-04-17T09:37:23.513Z,19.73
2018-04-17T09:38:23.510Z,19.83
2018-04-17T09:39:23.965Z,19.91
2018-04-17T09:40:23.687Z,19.91
2018-04-17T09:41:23.492Z,19.94
2018-04-17T09:42:23.479Z,19.87
2018-04-17T09:43:23.421Z,19.78
2018-04-17T09:44:23.494Z,19.71
2018-04-17T09:45:23.428Z,19.63
2018-04-17T09:46:23.439Z,19.51
2018-04-17T09:47:23.446Z,19.56
2018-04-17T09:48:23.154Z,19.58
2018-04-17T09:49:23.434Z,19.62
2018-04-17T09:50:23.503Z,19.63
2018-04-17T09:51:23.456Z,19.61
2018-04-17T09:52:22.921Z,19.58
2018-04-17T09:53:23.164Z,19.46
2018-04-17T09:54:23.176Z,19.41
2018-04-17T09:55:23.386Z,19.44
2018-04-17T09:56:23.382Z,19.46
2018-04-17T09:57:23.386Z,19.5
2018-04-17T09:58:23.401Z,19.32
2018-04-17T09:59:23.148Z,19.29
2018-04-17T10:00:23.402Z,19.26
2018-04-17T10:01:23.161Z,19.16
2018-04-17T10:02:23.387Z,19.16
2018-04-17T10:03:23.382Z,19.1
2018-04-17T10:04:23.378Z,19.02
2018-04-17T10:05:23.656Z,19.1
2018-04-17T10:06:23.385Z,19.13
2018-04-17T10:07:23.368Z,19.23
2018-04-17T10:08:23.387Z,19.31
2018-04-17T10:09:23.381Z,19.37
2018-04-17T10:10:23.377Z,19.47
2018-04-17T10:11:23.444Z,19.54
2018-04-17T10:12:22.854Z,19.55
2018-04-17T10:13:23.104Z,19.48
2018-04-17T10:14:23.381Z,19.4
2018-04-17T10:15:23.384Z,19.37
2018-04-17T10:16:22.855Z,19.36
2018-04-17T10:17:23.260Z,19.33
2018-04-17T10:18:23.409Z,19.28
2018-04-17T10:19:23.348Z,19.32
2018-04-17T10:20:23.369Z,19.26
2018-04-17T10:21:23.353Z,19.16
2018-04-17T10:22:23.363Z,19.16
2018-04-17T10:23:23.358Z,19.14
2018-04-17T10:24:23.333Z,19.08
2018-04-17T10:25:23.336Z,19.11
2018-04-17T10:26:23.355Z,19.14
2018-04-17T10:27:23.370Z,19.16
2018-04-17T10:28:23.107Z,19.11
2018-04-17T10:29:23.374Z,19.13
2018-04-17T10:30:23.485Z,19.14
2018-04-17T10:31:23.372Z,19.18
2018-04-17T10:32:23.343Z,19.25
2018-04-17T10:33:23.335Z,19.33
2018-04-17T10:34:23.319Z,19.33
2018-04-17T10:35:23.079Z,19.36
2018-04-17T10:36:22.834Z,19.33
2018-04-17T10:37:23.535Z,19.33
2018-04-17T10:38:23.359Z,19.36
2018-04-17T10:39:23.378Z,19.31
2018-04-17T10:40:23.352Z,19.28
2018-04-17T10:41:23.112Z,19.32
2018-04-17T10:42:23.086Z,19.39
2018-04-17T10:43:23.312Z,19.39
2018-04-17T10:44:23.298Z,19.46
2018-04-17T10:45:23.300Z,19.41
2018-04-17T10:46:23.308Z,19.4
2018-04-17T10:47:23.323Z,19.36
2018-04-17T10:48:23.309Z,19.44
2018-04-17T10:49:23.302Z,19.5
2018-04-17T10:50:23.291Z,19.59
2018-04-17T10:51:23.312Z,19.56
2018-04-17T10:52:23.288Z,19.62
2018-04-17T10:53:23.304Z,19.69
2018-04-17T10:54:23.553Z,19.71
2018-04-17T10:55:23.035Z,19.76
2018-04-17T10:56:23.332Z,19.77
2018-04-17T10:57:23.292Z,19.74
2018-04-17T10:58:23.048Z,19.69
2018-04-17T10:59:23.329Z,19.8
2018-04-17T11:00:23.028Z,19.83
2018-04-17T11:01:23.282Z,19.88
2018-04-17T11:02:23.267Z,19.81
2018-04-17T11:03:23.436Z,19.84
2018-04-17T11:04:23.266Z,19.77
2018-04-17T11:05:23.287Z,19.78
2018-04-17T11:06:23.305Z,19.71
2018-04-17T11:07:23.286Z,19.83
2018-04-17T11:08:23.266Z,19.83
2018-04-17T11:09:23.269Z,19.77
2018-04-17T11:10:23.415Z,19.86
2018-04-17T11:11:23.251Z,19.95
2018-04-17T11:12:23.251Z,19.96
2018-04-17T11:13:23.263Z,19.96
2018-04-17T11:14:23.280Z,19.91
2018-04-17T11:15:23.263Z,19.94
2018-04-17T11:16:23.284Z,19.94
2018-04-17T11:17:23.262Z,20.02
2018-04-17T11:18:23.034Z,20.02
2018-04-17T11:19:23.235Z,20.01
2018-04-17T11:20:22.993Z,19.88
2018-04-17T11:21:22.729Z,19.94
2018-04-17T11:22:23.242Z,19.94
2018-04-17T11:23:23.278Z,19.96
2018-04-17T11:24:22.983Z,20.06
2018-04-17T11:25:23.250Z,20.05
2018-04-17T11:26:22.984Z,20.05
2018-04-17T11:27:23.248Z,20.2
2018-04-17T11:28:23.505Z,20.28
2018-04-17T11:29:23.241Z,20.31
2018-04-17T11:30:23.240Z,20.32
2018-04-17T11:31:23.223Z,20.31
2018-04-17T11:32:23.226Z,20.35
2018-04-17T11:33:22.962Z,20.39
2018-04-17T11:34:22.987Z,20.48
2018-04-17T11:35:23.218Z,20.39
2018-04-17T11:36:22.969Z,20.42
2018-04-17T11:37:22.954Z,20.43
2018-04-17T11:38:23.209Z,20.52
2018-04-17T11:39:23.201Z,20.42
2018-04-17T11:40:23.207Z,20.43
2018-04-17T11:41:23.309Z,20.35
2018-04-17T11:42:23.249Z,20.52
2018-04-17T11:43:22.961Z,20.54
2018-04-17T11:44:23.195Z,20.66
2018-04-17T11:45:23.196Z,20.77
2018-04-17T11:46:23.408Z,20.85
2018-04-17T11:47:23.195Z,20.88
2018-04-17T11:48:23.234Z,20.99
2018-04-17T11:49:23.193Z,21.16
2018-04-17T11:50:22.998Z,21.25
2018-04-17T11:51:23.208Z,21.34
2018-04-17T11:52:22.942Z,21.34
2018-04-17T11:53:23.206Z,21.38
2018-04-17T11:54:23.190Z,21.46
2018-04-17T11:55:22.950Z,21.5
2018-04-17T11:56:23.190Z,21.56
2018-04-17T11:57:23.183Z,21.62
2018-04-17T11:58:22.928Z,21.64
2018-04-17T11:59:23.179Z,21.68
2018-04-17T12:00:23.181Z,21.83
2018-04-17T12:01:23.189Z,21.86
2018-04-17T12:02:23.264Z,21.94
2018-04-17T12:03:23.428Z,21.94
2018-04-17T12:04:23.176Z,21.98
2018-04-17T12:05:23.180Z,22.05
2018-04-17T12:06:23.190Z,22.03
2018-04-17T12:07:22.676Z,21.98
2018-04-17T12:08:23.216Z,21.98
2018-04-17T12:09:23.185Z,21.99
2018-04-17T12:10:22.929Z,21.9
2018-04-17T12:11:23.174Z,21.96
2018-04-17T12:12:23.185Z,22
2018-04-17T12:13:22.933Z,22.03
2018-04-17T12:14:23.187Z,22.02
2018-04-17T12:15:23.173Z,22.2
2018-04-17T12:16:23.176Z,22.24
2018-04-17T12:17:23.178Z,22.35
2018-04-17T12:18:23.198Z,22.33
2018-04-17T12:19:23.188Z,22.39
2018-04-17T12:20:23.242Z,22.35
2018-04-17T12:21:22.934Z,22.4
2018-04-17T12:22:22.938Z,22.47
2018-04-17T12:23:22.666Z,22.49
2018-04-17T12:24:23.177Z,22.52
2018-04-17T12:25:23.194Z,22.55
2018-04-17T12:26:22.917Z,22.52
2018-04-17T12:27:23.160Z,22.46
2018-04-17T12:28:22.938Z,22.49
2018-04-17T12:29:23.187Z,22.49
2018-04-17T12:30:23.422Z,22.42
2018-04-17T12:31:23.228Z,22.46
2018-04-17T12:32:23.181Z,22.43
2018-04-17T12:33:23.197Z,22.33
2018-04-17T12:34:23.197Z,22.31
2018-04-17T12:35:22.944Z,22.33
2018-04-17T12:36:22.685Z,22.24
2018-04-17T12:37:22.960Z,22.24
2018-04-17T12:38:22.950Z,22.1
2018-04-17T12:39:22.726Z,22.05
2018-04-17T12:40:22.959Z,21.79
2018-04-17T12:41:23.192Z,21.83
2018-04-17T12:42:22.952Z,21.68
2018-04-17T12:43:23.188Z,21.69
2018-04-17T12:44:23.212Z,21.62
2018-04-17T12:45:23.176Z,21.62
2018-04-17T12:46:22.928Z,21.59
2018-04-17T12:47:23.194Z,21.52
2018-04-17T12:48:23.188Z,21.47
2018-04-17T12:49:23.181Z,21.5
2018-04-17T12:50:23.212Z,21.37
2018-04-17T12:51:22.992Z,21.34
2018-04-17T12:52:23.200Z,21.4
2018-04-17T12:53:23.255Z,21.44
2018-04-17T12:54:23.210Z,21.43
2018-04-17T12:55:22.951Z,21.34
2018-04-17T12:56:23.404Z,21.4
2018-04-17T12:57:23.172Z,21.46
2018-04-17T12:58:23.180Z,21.37
2018-04-17T12:59:23.183Z,21.38
2018-04-17T13:00:22.913Z,21.34
2018-04-17T13:01:23.177Z,21.34
2018-04-17T13:02:23.185Z,21.37
2018-04-17T13:03:23.216Z,21.35